sensor_id;sensor_type;location;lat;lon;timestamp;P1;durP1;ratioP1;P2;durP2;ratioP2
32788;SDS011;19141;48.980;8.410;2023-08-01T04:22:31;6.78;;;3.30;;
32788;SDS011;19141;48.980;8.410;2023-08-01T04:24:56;9.55;;;3.45;;
32788;SDS011;19141;48.980;8.410;2023-08-01T04:27:22;5.65;;;3.20;;
32788;SDS011;19141;48.980;8.410;2023-08-01T04:29:48;8.27;;;3.80;;
32788;SDS011;19141;48.980;8.410;2023-08-01T04:32:13;5.65;;;3.42;;
32788;SDS011;19141;48.980;8.410;2023-08-01T04:34:40;6.53;;;3.33;;
32788;SDS011;19141;48.980;8.410;2023-08-01T04:37:08;9.18;;;3.92;;
32788;SDS011;19141;48.980;8.410;2023-08-01T04:39:35;4.70;;;2.85;;
32788;SDS011;19141;48.980;8.410;2023-08-01T04:42:01;4.70;;;2.95;;
32788;SDS011;19141;48.980;8.410;2023-08-01T04:44:26;6.53;;;2.80;;
32788;SDS011;19141;48.980;8.410;2023-08-01T04:46:52;7.53;;;2.95;;
32788;SDS011;19141;48.980;8.410;2023-08-01T04:49:18;4.40;;;2.40;;
32788;SDS011;19141;48.980;8.410;2023-08-01T04:51:44;4.65;;;3.03;;
32788;SDS011;19141;48.980;8.410;2023-08-01T04:54:09;6.28;;;2.67;;
32788;SDS011;19141;48.980;8.410;2023-08-01T04:56:35;6.30;;;2.83;;
32788;SDS011;19141;48.980;8.410;2023-08-01T04:59:00;4.30;;;2.90;;
32788;SDS011;19141;48.980;8.410;2023-08-01T05:01:27;5.03;;;2.78;;
32788;SDS011;19141;48.980;8.410;2023-08-01T05:03:52;4.10;;;2.65;;
32788;SDS011;19141;48.980;8.410;2023-08-01T05:06:18;5.78;;;2.58;;
32788;SDS011;19141;48.980;8.410;2023-08-01T05:08:43;5.38;;;3.40;;
32788;SDS011;19141;48.980;8.410;2023-08-01T05:11:09;5.57;;;2.78;;
32788;SDS011;19141;48.980;8.410;2023-08-01T05:13:34;4.45;;;2.90;;
32788;SDS011;19141;48.980;8.410;2023-08-01T05:16:00;4.60;;;3.13;;
32788;SDS011;19141;48.980;8.410;2023-08-01T05:18:25;6.32;;;3.08;;
32788;SDS011;19141;48.980;8.410;2023-08-01T05:20:51;4.40;;;2.60;;
32788;SDS011;19141;48.980;8.410;2023-08-01T05:23:16;3.83;;;2.72;;
32788;SDS011;19141;48.980;8.410;2023-08-01T05:25:42;5.18;;;2.83;;
32788;SDS011;19141;48.980;8.410;2023-08-01T05:28:07;5.57;;;3.13;;
32788;SDS011;19141;48.980;8.410;2023-08-01T05:30:32;5.90;;;3.15;;
32788;SDS011;19141;48.980;8.410;2023-08-01T05:32:58;4.75;;;2.70;;
32788;SDS011;19141;48.980;8.410;2023-08-01T05:35:23;5.78;;;2.85;;
32788;SDS011;19141;48.980;8.410;2023-08-01T05:37:49;5.50;;;3.08;;
32788;SDS011;19141;48.980;8.410;2023-08-01T05:40:14;6.35;;;2.92;;
32788;SDS011;19141;48.980;8.410;2023-08-01T05:42:39;4.15;;;2.80;;
32788;SDS011;19141;48.980;8.410;2023-08-01T05:45:05;7.57;;;3.65;;
32788;SDS011;19141;48.980;8.410;2023-08-01T05:47:31;5.82;;;2.63;;
32788;SDS011;19141;48.980;8.410;2023-08-01T05:49:56;5.70;;;2.97;;
32788;SDS011;19141;48.980;8.410;2023-08-01T05:52:22;7.82;;;3.30;;
32788;SDS011;19141;48.980;8.410;2023-08-01T05:54:47;7.03;;;4.30;;
32788;SDS011;19141;48.980;8.410;2023-08-01T05:57:13;7.65;;;3.40;;
32788;SDS011;19141;48.980;8.410;2023-08-01T05:59:38;6.82;;;4.13;;
32788;SDS011;19141;48.980;8.410;2023-08-01T06:02:04;8.38;;;3.55;;
32788;SDS011;19141;48.980;8.410;2023-08-01T06:04:29;6.97;;;3.70;;
32788;SDS011;19141;48.980;8.410;2023-08-01T06:06:55;8.25;;;3.70;;
32788;SDS011;19141;48.980;8.410;2023-08-01T06:09:21;7.85;;;3.90;;
32788;SDS011;19141;48.980;8.410;2023-08-01T06:11:46;7.32;;;3.63;;
32788;SDS011;19141;48.980;8.410;2023-08-01T06:14:12;6.60;;;3.97;;
32788;SDS011;19141;48.980;8.410;2023-08-01T06:16:37;6.72;;;4.18;;
32788;SDS011;19141;48.980;8.410;2023-08-01T06:19:02;8.38;;;4.25;;
32788;SDS011;19141;48.980;8.410;2023-08-01T06:21:28;11.30;;;5.18;;
32788;SDS011;19141;48.980;8.410;2023-08-01T06:23:53;8.30;;;4.15;;
32788;SDS011;19141;48.980;8.410;2023-08-01T06:26:19;7.00;;;4.03;;
32788;SDS011;19141;48.980;8.410;2023-08-01T06:28:44;7.03;;;3.78;;
32788;SDS011;19141;48.980;8.410;2023-08-01T06:31:10;7.60;;;4.22;;
32788;SDS011;19141;48.980;8.410;2023-08-01T06:33:35;7.03;;;3.85;;
32788;SDS011;19141;48.980;8.410;2023-08-01T06:36:00;8.80;;;4.70;;
32788;SDS011;19141;48.980;8.410;2023-08-01T06:38:26;6.75;;;4.28;;
32788;SDS011;19141;48.980;8.410;2023-08-01T06:40:51;9.55;;;4.45;;
32788;SDS011;19141;48.980;8.410;2023-08-01T06:43:17;10.30;;;4.75;;
32788;SDS011;19141;48.980;8.410;2023-08-01T06:45:42;9.73;;;4.85;;
32788;SDS011;19141;48.980;8.410;2023-08-01T06:48:07;10.30;;;4.40;;
32788;SDS011;19141;48.980;8.410;2023-08-01T06:50:33;10.13;;;4.85;;
32788;SDS011;19141;48.980;8.410;2023-08-01T06:52:59;8.77;;;4.75;;
32788;SDS011;19141;48.980;8.410;2023-08-01T06:55:26;10.15;;;4.63;;
32788;SDS011;19141;48.980;8.410;2023-08-01T06:57:51;7.80;;;4.10;;
32788;SDS011;19141;48.980;8.410;2023-08-01T07:00:16;9.35;;;4.63;;
32788;SDS011;19141;48.980;8.410;2023-08-01T07:02:42;8.68;;;4.38;;
32788;SDS011;19141;48.980;8.410;2023-08-01T07:05:07;8.43;;;4.60;;
32788;SDS011;19141;48.980;8.410;2023-08-01T07:07:33;12.52;;;4.95;;
32788;SDS011;19141;48.980;8.410;2023-08-01T07:09:58;10.75;;;4.97;;
32788;SDS011;19141;48.980;8.410;2023-08-01T07:12:24;9.43;;;4.07;;
32788;SDS011;19141;48.980;8.410;2023-08-01T07:14:49;8.30;;;4.03;;
32788;SDS011;19141;48.980;8.410;2023-08-01T07:17:15;6.10;;;3.92;;
32788;SDS011;19141;48.980;8.410;2023-08-01T07:19:40;10.00;;;3.88;;
32788;SDS011;19141;48.980;8.410;2023-08-01T07:22:05;5.63;;;3.30;;
32788;SDS011;19141;48.980;8.410;2023-08-01T07:24:31;7.65;;;3.67;;
32788;SDS011;19141;48.980;8.410;2023-08-01T07:26:56;6.38;;;3.47;;
32788;SDS011;19141;48.980;8.410;2023-08-01T07:29:23;6.33;;;3.53;;
32788;SDS011;19141;48.980;8.410;2023-08-01T07:31:48;6.65;;;3.75;;
32788;SDS011;19141;48.980;8.410;2023-08-01T07:34:14;7.43;;;3.80;;
32788;SDS011;19141;48.980;8.410;2023-08-01T07:36:39;5.93;;;3.58;;
32788;SDS011;19141;48.980;8.410;2023-08-01T07:39:04;8.90;;;3.90;;
32788;SDS011;19141;48.980;8.410;2023-08-01T07:41:30;6.18;;;3.28;;
32788;SDS011;19141;48.980;8.410;2023-08-01T07:43:55;5.80;;;3.45;;
32788;SDS011;19141;48.980;8.410;2023-08-01T07:46:21;5.28;;;3.30;;
32788;SDS011;19141;48.980;8.410;2023-08-01T07:48:46;5.88;;;3.70;;
32788;SDS011;19141;48.980;8.410;2023-08-01T07:51:11;5.43;;;3.20;;
32788;SDS011;19141;48.980;8.410;2023-08-01T07:53:37;5.85;;;3.13;;
32788;SDS011;19141;48.980;8.410;2023-08-01T07:56:03;6.20;;;2.60;;
32788;SDS011;19141;48.980;8.410;2023-08-01T07:58:29;5.72;;;2.72;;
32788;SDS011;19141;48.980;8.410;2023-08-01T08:00:55;5.63;;;2.75;;
32788;SDS011;19141;48.980;8.410;2023-08-01T08:03:20;5.15;;;2.55;;
32788;SDS011;19141;48.980;8.410;2023-08-01T08:05:48;4.43;;;2.65;;
32788;SDS011;19141;48.980;8.410;2023-08-01T08:08:14;5.95;;;2.67;;
32788;SDS011;19141;48.980;8.410;2023-08-01T08:10:40;3.97;;;2.33;;
32788;SDS011;19141;48.980;8.410;2023-08-01T08:13:05;5.30;;;2.83;;
32788;SDS011;19141;48.980;8.410;2023-08-01T08:15:30;4.15;;;2.88;;
32788;SDS011;19141;48.980;8.410;2023-08-01T08:17:59;6.50;;;3.28;;
32788;SDS011;19141;48.980;8.410;2023-08-01T08:20:26;4.30;;;3.42;;
32788;SDS011;19141;48.980;8.410;2023-08-01T08:22:51;7.60;;;3.50;;
32788;SDS011;19141;48.980;8.410;2023-08-01T08:25:17;5.43;;;2.83;;
32788;SDS011;19141;48.980;8.410;2023-08-01T08:27:42;5.53;;;3.20;;
32788;SDS011;19141;48.980;8.410;2023-08-01T08:30:08;5.32;;;2.80;;
32788;SDS011;19141;48.980;8.410;2023-08-01T08:32:34;7.18;;;2.83;;
32788;SDS011;19141;48.980;8.410;2023-08-01T08:35:00;5.38;;;3.08;;
32788;SDS011;19141;48.980;8.410;2023-08-01T08:37:26;4.82;;;2.83;;
32788;SDS011;19141;48.980;8.410;2023-08-01T08:39:51;4.22;;;2.67;;
32788;SDS011;19141;48.980;8.410;2023-08-01T08:42:17;6.15;;;2.65;;
32788;SDS011;19141;48.980;8.410;2023-08-01T08:47:10;5.03;;;2.72;;
32788;SDS011;19141;48.980;8.410;2023-08-01T08:49:37;3.20;;;1.98;;
32788;SDS011;19141;48.980;8.410;2023-08-01T08:52:04;2.78;;;2.08;;
32788;SDS011;19141;48.980;8.410;2023-08-01T08:54:30;3.40;;;2.15;;
32788;SDS011;19141;48.980;8.410;2023-08-01T08:56:57;3.47;;;1.92;;
32788;SDS011;19141;48.980;8.410;2023-08-01T08:59:23;3.40;;;1.70;;
32788;SDS011;19141;48.980;8.410;2023-08-01T09:01:50;2.80;;;1.73;;
32788;SDS011;19141;48.980;8.410;2023-08-01T09:04:15;2.83;;;1.40;;
32788;SDS011;19141;48.980;8.410;2023-08-01T09:06:44;2.38;;;1.80;;
32788;SDS011;19141;48.980;8.410;2023-08-01T09:09:12;2.33;;;1.35;;
32788;SDS011;19141;48.980;8.410;2023-08-01T09:11:42;1.80;;;1.30;;
32788;SDS011;19141;48.980;8.410;2023-08-01T09:14:11;1.75;;;1.20;;
32788;SDS011;19141;48.980;8.410;2023-08-01T09:16:36;1.45;;;0.95;;
32788;SDS011;19141;48.980;8.410;2023-08-01T09:19:06;2.15;;;0.90;;
32788;SDS011;19141;48.980;8.410;2023-08-01T09:21:33;1.33;;;0.98;;
32788;SDS011;19141;48.980;8.410;2023-08-01T09:24:11;1.92;;;1.05;;
32788;SDS011;19141;48.980;8.410;2023-08-01T09:26:38;3.35;;;0.90;;
32788;SDS011;19141;48.980;8.410;2023-08-01T09:29:04;1.52;;;0.73;;
32788;SDS011;19141;48.980;8.410;2023-08-01T09:31:31;0.93;;;0.70;;
32788;SDS011;19141;48.980;8.410;2023-08-01T09:34:17;1.13;;;0.80;;
32788;SDS011;19141;48.980;8.410;2023-08-01T09:36:44;1.55;;;0.80;;
32788;SDS011;19141;48.980;8.410;2023-08-01T09:39:15;1.75;;;0.90;;
32788;SDS011;19141;48.980;8.410;2023-08-01T09:41:41;1.50;;;0.90;;
32788;SDS011;19141;48.980;8.410;2023-08-01T09:44:10;1.25;;;0.77;;
32788;SDS011;19141;48.980;8.410;2023-08-01T09:46:41;1.25;;;0.90;;
32788;SDS011;19141;48.980;8.410;2023-08-01T09:49:08;2.08;;;0.88;;
32788;SDS011;19141;48.980;8.410;2023-08-01T09:51:45;1.25;;;0.80;;
32788;SDS011;19141;48.980;8.410;2023-08-01T09:54:12;1.38;;;0.85;;
32788;SDS011;19141;48.980;8.410;2023-08-01T09:56:37;1.45;;;0.73;;
32788;SDS011;19141;48.980;8.410;2023-08-01T09:59:04;0.82;;;0.60;;
32788;SDS011;19141;48.980;8.410;2023-08-01T10:01:30;1.23;;;0.82;;
32788;SDS011;19141;48.980;8.410;2023-08-01T10:03:58;1.50;;;1.08;;
32788;SDS011;19141;48.980;8.410;2023-08-01T10:06:24;1.25;;;0.80;;
32788;SDS011;19141;48.980;8.410;2023-08-01T10:08:54;1.80;;;0.73;;
32788;SDS011;19141;48.980;8.410;2023-08-01T10:11:20;1.33;;;0.77;;
32788;SDS011;19141;48.980;8.410;2023-08-01T10:13:46;1.55;;;0.73;;
32788;SDS011;19141;48.980;8.410;2023-08-01T10:16:13;2.08;;;1.00;;
32788;SDS011;19141;48.980;8.410;2023-08-01T10:18:39;1.83;;;0.90;;
32788;SDS011;19141;48.980;8.410;2023-08-01T10:21:14;1.13;;;0.70;;
32788;SDS011;19141;48.980;8.410;2023-08-01T10:23:41;4.63;;;1.30;;
32788;SDS011;19141;48.980;8.410;2023-08-01T10:26:08;1.55;;;0.98;;
32788;SDS011;19141;48.980;8.410;2023-08-01T10:28:37;2.42;;;0.90;;
32788;SDS011;19141;48.980;8.410;2023-08-01T10:31:10;1.50;;;0.90;;
32788;SDS011;19141;48.980;8.410;2023-08-01T10:33:40;0.82;;;0.80;;
32788;SDS011;19141;48.980;8.410;2023-08-01T10:38:44;2.75;;;1.20;;
32788;SDS011;19141;48.980;8.410;2023-08-01T10:41:27;2.78;;;1.30;;
32788;SDS011;19141;48.980;8.410;2023-08-01T10:44:07;5.45;;;1.45;;
32788;SDS011;19141;48.980;8.410;2023-08-01T10:49:17;2.40;;;1.48;;
32788;SDS011;19141;48.980;8.410;2023-08-01T10:51:44;4.40;;;1.42;;
32788;SDS011;19141;48.980;8.410;2023-08-01T10:54:23;4.50;;;1.47;;
32788;SDS011;19141;48.980;8.410;2023-08-01T10:56:50;3.03;;;1.67;;
32788;SDS011;19141;48.980;8.410;2023-08-01T10:59:16;3.45;;;1.52;;
32788;SDS011;19141;48.980;8.410;2023-08-01T11:01:43;2.42;;;1.27;;
32788;SDS011;19141;48.980;8.410;2023-08-01T11:04:14;5.05;;;1.60;;
32788;SDS011;19141;48.980;8.410;2023-08-01T11:06:47;5.60;;;1.77;;
32788;SDS011;19141;48.980;8.410;2023-08-01T11:11:50;3.97;;;1.30;;
32788;SDS011;19141;48.980;8.410;2023-08-01T11:14:23;3.45;;;1.60;;
32788;SDS011;19141;48.980;8.410;2023-08-01T11:16:50;5.88;;;1.90;;
32788;SDS011;19141;48.980;8.410;2023-08-01T11:19:28;2.47;;;1.90;;
32788;SDS011;19141;48.980;8.410;2023-08-01T11:21:55;4.03;;;1.67;;
32788;SDS011;19141;48.980;8.410;2023-08-01T11:24:25;3.30;;;1.58;;
32788;SDS011;19141;48.980;8.410;2023-08-01T11:26:53;5.03;;;1.85;;
32788;SDS011;19141;48.980;8.410;2023-08-01T11:29:19;3.60;;;1.95;;
32788;SDS011;19141;48.980;8.410;2023-08-01T11:31:55;4.57;;;1.63;;
32788;SDS011;19141;48.980;8.410;2023-08-01T11:34:22;3.53;;;1.70;;
32788;SDS011;19141;48.980;8.410;2023-08-01T11:36:47;5.15;;;2.30;;
32788;SDS011;19141;48.980;8.410;2023-08-01T11:39:14;5.82;;;1.83;;
32788;SDS011;19141;48.980;8.410;2023-08-01T11:41:41;4.03;;;2.13;;
32788;SDS011;19141;48.980;8.410;2023-08-01T11:44:07;5.75;;;1.88;;
32788;SDS011;19141;48.980;8.410;2023-08-01T11:46:36;4.30;;;2.47;;
32788;SDS011;19141;48.980;8.410;2023-08-01T11:49:02;3.40;;;1.80;;
32788;SDS011;19141;48.980;8.410;2023-08-01T11:51:28;3.95;;;1.92;;
32788;SDS011;19141;48.980;8.410;2023-08-01T11:54:00;3.53;;;1.70;;
32788;SDS011;19141;48.980;8.410;2023-08-01T11:56:27;4.85;;;2.55;;
32788;SDS011;19141;48.980;8.410;2023-08-01T11:58:53;3.53;;;1.60;;
32788;SDS011;19141;48.980;8.410;2023-08-01T12:01:19;4.88;;;1.75;;
32788;SDS011;19141;48.980;8.410;2023-08-01T12:03:45;4.38;;;2.30;;
32788;SDS011;19141;48.980;8.410;2023-08-01T12:06:12;3.80;;;1.90;;
32788;SDS011;19141;48.980;8.410;2023-08-01T12:08:39;2.28;;;1.42;;
32788;SDS011;19141;48.980;8.410;2023-08-01T12:11:16;3.75;;;1.70;;
32788;SDS011;19141;48.980;8.410;2023-08-01T12:13:43;3.58;;;1.48;;
32788;SDS011;19141;48.980;8.410;2023-08-01T12:16:09;3.17;;;1.70;;
32788;SDS011;19141;48.980;8.410;2023-08-01T12:18:34;3.42;;;1.45;;
32788;SDS011;19141;48.980;8.410;2023-08-01T12:21:02;2.25;;;1.42;;
32788;SDS011;19141;48.980;8.410;2023-08-01T12:23:30;3.85;;;1.77;;
32788;SDS011;19141;48.980;8.410;2023-08-01T12:25:56;5.22;;;1.98;;
32788;SDS011;19141;48.980;8.410;2023-08-01T12:28:21;3.95;;;1.65;;
32788;SDS011;19141;48.980;8.410;2023-08-01T12:30:47;3.20;;;1.60;;
32788;SDS011;19141;48.980;8.410;2023-08-01T12:33:13;4.00;;;1.73;;
32788;SDS011;19141;48.980;8.410;2023-08-01T12:35:39;3.83;;;1.55;;
32788;SDS011;19141;48.980;8.410;2023-08-01T12:40:31;3.07;;;1.30;;
32788;SDS011;19141;48.980;8.410;2023-08-01T12:42:57;3.60;;;1.40;;
32788;SDS011;19141;48.980;8.410;2023-08-01T12:45:22;2.70;;;1.45;;
32788;SDS011;19141;48.980;8.410;2023-08-01T12:47:48;5.90;;;1.65;;
32788;SDS011;19141;48.980;8.410;2023-08-01T12:50:14;2.80;;;1.30;;
32788;SDS011;19141;48.980;8.410;2023-08-01T12:52:39;3.92;;;1.42;;
32788;SDS011;19141;48.980;8.410;2023-08-01T12:55:05;3.90;;;1.60;;
32788;SDS011;19141;48.980;8.410;2023-08-01T12:57:31;3.13;;;1.58;;
32788;SDS011;19141;48.980;8.410;2023-08-01T12:59:56;2.40;;;1.23;;
32788;SDS011;19141;48.980;8.410;2023-08-01T13:02:21;2.55;;;1.45;;
32788;SDS011;19141;48.980;8.410;2023-08-01T13:04:47;3.05;;;1.73;;
32788;SDS011;19141;48.980;8.410;2023-08-01T13:07:12;3.28;;;1.23;;
32788;SDS011;19141;48.980;8.410;2023-08-01T13:09:38;2.53;;;1.52;;
32788;SDS011;19141;48.980;8.410;2023-08-01T13:12:04;4.03;;;1.65;;
32788;SDS011;19141;48.980;8.410;2023-08-01T13:14:31;4.80;;;1.73;;
32788;SDS011;19141;48.980;8.410;2023-08-01T13:16:57;4.47;;;1.40;;
32788;SDS011;19141;48.980;8.410;2023-08-01T13:19:23;3.03;;;1.07;;
32788;SDS011;19141;48.980;8.410;2023-08-01T13:21:48;4.40;;;1.98;;
32788;SDS011;19141;48.980;8.410;2023-08-01T13:24:13;2.92;;;1.70;;
32788;SDS011;19141;48.980;8.410;2023-08-01T13:26:39;3.20;;;1.42;;
32788;SDS011;19141;48.980;8.410;2023-08-01T13:29:04;4.78;;;1.65;;
32788;SDS011;19141;48.980;8.410;2023-08-01T13:31:30;3.10;;;1.27;;
32788;SDS011;19141;48.980;8.410;2023-08-01T13:33:55;4.18;;;1.50;;
32788;SDS011;19141;48.980;8.410;2023-08-01T13:36:21;4.72;;;1.50;;
32788;SDS011;19141;48.980;8.410;2023-08-01T13:38:46;2.70;;;1.65;;
32788;SDS011;19141;48.980;8.410;2023-08-01T13:41:12;3.10;;;1.30;;
32788;SDS011;19141;48.980;8.410;2023-08-01T13:43:37;2.03;;;1.25;;
32788;SDS011;19141;48.980;8.410;2023-08-01T13:46:15;3.67;;;1.92;;
32788;SDS011;19141;48.980;8.410;2023-08-01T13:48:42;4.68;;;1.38;;
32788;SDS011;19141;48.980;8.410;2023-08-01T13:51:08;4.50;;;1.57;;
32788;SDS011;19141;48.980;8.410;2023-08-01T13:53:35;2.63;;;1.63;;
32788;SDS011;19141;48.980;8.410;2023-08-01T13:56:06;4.65;;;1.40;;
32788;SDS011;19141;48.980;8.410;2023-08-01T13:58:32;3.08;;;1.83;;
32788;SDS011;19141;48.980;8.410;2023-08-01T14:01:01;3.50;;;1.30;;
32788;SDS011;19141;48.980;8.410;2023-08-01T14:03:28;4.50;;;1.50;;
32788;SDS011;19141;48.980;8.410;2023-08-01T14:05:53;3.75;;;1.30;;
32788;SDS011;19141;48.980;8.410;2023-08-01T14:08:18;3.75;;;1.40;;
32788;SDS011;19141;48.980;8.410;2023-08-01T14:10:44;2.92;;;1.45;;
32788;SDS011;19141;48.980;8.410;2023-08-01T14:13:09;2.88;;;1.30;;
32788;SDS011;19141;48.980;8.410;2023-08-01T14:15:35;3.70;;;1.27;;
32788;SDS011;19141;48.980;8.410;2023-08-01T14:18:00;4.72;;;1.50;;
32788;SDS011;19141;48.980;8.410;2023-08-01T14:20:25;2.63;;;1.13;;
32788;SDS011;19141;48.980;8.410;2023-08-01T14:22:51;3.80;;;1.10;;
32788;SDS011;19141;48.980;8.410;2023-08-01T14:25:16;2.33;;;1.42;;
32788;SDS011;19141;48.980;8.410;2023-08-01T14:27:41;2.83;;;1.65;;
32788;SDS011;19141;48.980;8.410;2023-08-01T14:30:07;4.75;;;2.25;;
32788;SDS011;19141;48.980;8.410;2023-08-01T14:32:32;2.70;;;1.27;;
32788;SDS011;19141;48.980;8.410;2023-08-01T14:34:58;1.90;;;1.20;;
32788;SDS011;19141;48.980;8.410;2023-08-01T14:37:23;1.83;;;1.02;;
32788;SDS011;19141;48.980;8.410;2023-08-01T14:42:16;3.40;;;1.30;;
32788;SDS011;19141;48.980;8.410;2023-08-01T14:44:41;2.30;;;1.20;;
32788;SDS011;19141;48.980;8.410;2023-08-01T14:47:07;3.53;;;1.48;;
32788;SDS011;19141;48.980;8.410;2023-08-01T14:49:32;2.60;;;1.45;;
32788;SDS011;19141;48.980;8.410;2023-08-01T14:51:58;2.55;;;1.38;;
32788;SDS011;19141;48.980;8.410;2023-08-01T14:54:23;2.47;;;1.30;;
32788;SDS011;19141;48.980;8.410;2023-08-01T14:56:51;3.63;;;1.40;;
32788;SDS011;19141;48.980;8.410;2023-08-01T14:59:16;2.63;;;1.55;;
32788;SDS011;19141;48.980;8.410;2023-08-01T15:01:41;3.20;;;1.60;;
32788;SDS011;19141;48.980;8.410;2023-08-01T15:04:07;2.35;;;1.40;;
32788;SDS011;19141;48.980;8.410;2023-08-01T15:06:32;2.78;;;1.60;;
32788;SDS011;19141;48.980;8.410;2023-08-01T15:08:57;3.70;;;1.40;;
32788;SDS011;19141;48.980;8.410;2023-08-01T15:11:23;1.88;;;1.23;;
32788;SDS011;19141;48.980;8.410;2023-08-01T15:13:48;1.80;;;1.17;;
32788;SDS011;19141;48.980;8.410;2023-08-01T15:16:14;6.25;;;1.77;;
32788;SDS011;19141;48.980;8.410;2023-08-01T15:18:40;3.33;;;1.73;;
32788;SDS011;19141;48.980;8.410;2023-08-01T15:21:05;4.38;;;1.90;;
32788;SDS011;19141;48.980;8.410;2023-08-01T15:23:31;4.22;;;1.40;;
32788;SDS011;19141;48.980;8.410;2023-08-01T15:25:57;2.20;;;1.20;;
32788;SDS011;19141;48.980;8.410;2023-08-01T15:28:23;3.15;;;1.60;;
32788;SDS011;19141;48.980;8.410;2023-08-01T15:30:50;3.38;;;2.55;;
32788;SDS011;19141;48.980;8.410;2023-08-01T15:33:26;2.47;;;1.50;;
32788;SDS011;19141;48.980;8.410;2023-08-01T15:35:52;3.15;;;1.40;;
32788;SDS011;19141;48.980;8.410;2023-08-01T15:38:24;3.95;;;1.63;;
32788;SDS011;19141;48.980;8.410;2023-08-01T15:40:49;3.33;;;1.83;;
32788;SDS011;19141;48.980;8.410;2023-08-01T15:43:17;2.30;;;1.30;;
32788;SDS011;19141;48.980;8.410;2023-08-01T15:45:43;3.70;;;1.52;;
32788;SDS011;19141;48.980;8.410;2023-08-01T15:48:08;2.13;;;1.33;;
32788;SDS011;19141;48.980;8.410;2023-08-01T15:50:33;3.88;;;1.58;;
32788;SDS011;19141;48.980;8.410;2023-08-01T15:52:59;1.75;;;1.30;;
32788;SDS011;19141;48.980;8.410;2023-08-01T15:55:24;3.80;;;1.40;;
32788;SDS011;19141;48.980;8.410;2023-08-01T15:57:49;2.58;;;1.48;;
32788;SDS011;19141;48.980;8.410;2023-08-01T16:00:15;4.20;;;1.67;;
32788;SDS011;19141;48.980;8.410;2023-08-01T16:02:40;3.38;;;1.60;;
32788;SDS011;19141;48.980;8.410;2023-08-01T16:05:06;4.03;;;1.63;;
32788;SDS011;19141;48.980;8.410;2023-08-01T16:07:32;4.20;;;1.75;;
32788;SDS011;19141;48.980;8.410;2023-08-01T16:09:57;1.60;;;1.35;;
32788;SDS011;19141;48.980;8.410;2023-08-01T16:12:23;2.30;;;1.50;;
32788;SDS011;19141;48.980;8.410;2023-08-01T16:14:48;3.67;;;1.58;;
32788;SDS011;19141;48.980;8.410;2023-08-01T16:17:13;4.38;;;1.85;;
32788;SDS011;19141;48.980;8.410;2023-08-01T16:19:39;3.10;;;1.75;;
32788;SDS011;19141;48.980;8.410;2023-08-01T16:22:04;3.15;;;1.40;;
32788;SDS011;19141;48.980;8.410;2023-08-01T16:24:30;5.95;;;1.60;;
32788;SDS011;19141;48.980;8.410;2023-08-01T16:26:55;2.10;;;1.60;;
32788;SDS011;19141;48.980;8.410;2023-08-01T16:29:21;4.93;;;1.50;;
32788;SDS011;19141;48.980;8.410;2023-08-01T16:31:46;2.33;;;1.38;;
32788;SDS011;19141;48.980;8.410;2023-08-01T16:34:11;2.83;;;1.40;;
32788;SDS011;19141;48.980;8.410;2023-08-01T16:36:37;2.58;;;1.40;;
32788;SDS011;19141;48.980;8.410;2023-08-01T16:39:02;4.47;;;1.63;;
32788;SDS011;19141;48.980;8.410;2023-08-01T16:41:28;3.40;;;2.03;;
32788;SDS011;19141;48.980;8.410;2023-08-01T16:43:53;2.83;;;1.45;;
32788;SDS011;19141;48.980;8.410;2023-08-01T16:46:20;3.00;;;1.83;;
32788;SDS011;19141;48.980;8.410;2023-08-01T16:48:45;3.65;;;1.58;;
32788;SDS011;19141;48.980;8.410;2023-08-01T16:51:11;4.30;;;2.13;;
32788;SDS011;19141;48.980;8.410;2023-08-01T16:53:36;4.18;;;1.90;;
32788;SDS011;19141;48.980;8.410;2023-08-01T16:56:01;4.97;;;1.73;;
32788;SDS011;19141;48.980;8.410;2023-08-01T16:58:27;3.30;;;1.52;;
32788;SDS011;19141;48.980;8.410;2023-08-01T17:00:52;3.92;;;1.70;;
32788;SDS011;19141;48.980;8.410;2023-08-01T17:03:18;4.57;;;2.00;;
32788;SDS011;19141;48.980;8.410;2023-08-01T17:05:43;3.38;;;1.40;;
32788;SDS011;19141;48.980;8.410;2023-08-01T17:08:09;4.43;;;1.52;;
32788;SDS011;19141;48.980;8.410;2023-08-01T17:10:34;4.45;;;1.65;;
32788;SDS011;19141;48.980;8.410;2023-08-01T17:13:00;2.78;;;1.35;;
32788;SDS011;19141;48.980;8.410;2023-08-01T17:15:27;2.83;;;1.20;;
32788;SDS011;19141;48.980;8.410;2023-08-01T17:17:52;2.90;;;1.83;;
32788;SDS011;19141;48.980;8.410;2023-08-01T17:20:18;1.90;;;1.30;;
32788;SDS011;19141;48.980;8.410;2023-08-01T17:22:43;3.42;;;1.80;;
32788;SDS011;19141;48.980;8.410;2023-08-01T17:25:09;3.97;;;1.52;;
32788;SDS011;19141;48.980;8.410;2023-08-01T17:27:34;4.25;;;1.50;;
32788;SDS011;19141;48.980;8.410;2023-08-01T17:30:00;5.03;;;1.83;;
32788;SDS011;19141;48.980;8.410;2023-08-01T17:32:26;2.72;;;1.33;;
32788;SDS011;19141;48.980;8.410;2023-08-01T17:34:52;3.15;;;1.45;;
32788;SDS011;19141;48.980;8.410;2023-08-01T17:37:17;3.30;;;1.65;;
32788;SDS011;19141;48.980;8.410;2023-08-01T17:39:42;2.97;;;1.25;;
32788;SDS011;19141;48.980;8.410;2023-08-01T17:42:08;4.10;;;1.48;;
32788;SDS011;19141;48.980;8.410;2023-08-01T17:44:33;4.28;;;2.25;;
32788;SDS011;19141;48.980;8.410;2023-08-01T17:46:59;2.80;;;1.25;;
32788;SDS011;19141;48.980;8.410;2023-08-01T17:49:24;5.05;;;1.58;;
32788;SDS011;19141;48.980;8.410;2023-08-01T17:51:50;3.38;;;1.33;;
32788;SDS011;19141;48.980;8.410;2023-08-01T17:54:15;4.32;;;2.05;;
32788;SDS011;19141;48.980;8.410;2023-08-01T17:56:41;5.78;;;1.70;;
32788;SDS011;19141;48.980;8.410;2023-08-01T17:59:06;2.95;;;1.58;;
32788;SDS011;19141;48.980;8.410;2023-08-01T18:01:32;3.78;;;1.52;;
32788;SDS011;19141;48.980;8.410;2023-08-01T18:03:59;2.45;;;1.50;;
32788;SDS011;19141;48.980;8.410;2023-08-01T18:06:25;2.70;;;1.73;;
32788;SDS011;19141;48.980;8.410;2023-08-01T18:08:50;2.28;;;1.58;;
32788;SDS011;19141;48.980;8.410;2023-08-01T18:11:16;5.30;;;2.00;;
32788;SDS011;19141;48.980;8.410;2023-08-01T18:13:43;3.92;;;1.70;;
32788;SDS011;19141;48.980;8.410;2023-08-01T18:16:17;1.77;;;1.33;;
32788;SDS011;19141;48.980;8.410;2023-08-01T18:18:51;2.90;;;1.65;;
32788;SDS011;19141;48.980;8.410;2023-08-01T18:21:18;2.63;;;1.50;;
32788;SDS011;19141;48.980;8.410;2023-08-01T18:23:44;3.20;;;1.38;;
32788;SDS011;19141;48.980;8.410;2023-08-01T18:26:20;2.97;;;1.52;;
32788;SDS011;19141;48.980;8.410;2023-08-01T18:28:47;2.25;;;1.33;;
32788;SDS011;19141;48.980;8.410;2023-08-01T18:31:13;5.28;;;1.77;;
32788;SDS011;19141;48.980;8.410;2023-08-01T18:33:38;5.93;;;2.30;;
32788;SDS011;19141;48.980;8.410;2023-08-01T18:36:11;2.28;;;1.52;;
32788;SDS011;19141;48.980;8.410;2023-08-01T18:38:40;4.10;;;1.95;;
32788;SDS011;19141;48.980;8.410;2023-08-01T18:41:07;2.40;;;1.50;;
32788;SDS011;19141;48.980;8.410;2023-08-01T18:43:33;2.42;;;1.60;;
32788;SDS011;19141;48.980;8.410;2023-08-01T18:45:58;5.20;;;1.92;;
32788;SDS011;19141;48.980;8.410;2023-08-01T18:48:24;4.20;;;1.75;;
32788;SDS011;19141;48.980;8.410;2023-08-01T18:50:49;4.68;;;2.65;;
32788;SDS011;19141;48.980;8.410;2023-08-01T18:53:15;3.22;;;1.40;;
32788;SDS011;19141;48.980;8.410;2023-08-01T18:55:40;5.72;;;2.13;;
32788;SDS011;19141;48.980;8.410;2023-08-01T18:58:06;3.38;;;1.65;;
32788;SDS011;19141;48.980;8.410;2023-08-01T19:00:32;2.97;;;1.65;;
32788;SDS011;19141;48.980;8.410;2023-08-01T19:02:58;3.85;;;1.52;;
32788;SDS011;19141;48.980;8.410;2023-08-01T19:05:24;5.68;;;2.10;;
32788;SDS011;19141;48.980;8.410;2023-08-01T19:07:50;5.43;;;1.88;;
32788;SDS011;19141;48.980;8.410;2023-08-01T19:10:16;5.63;;;1.58;;
32788;SDS011;19141;48.980;8.410;2023-08-01T19:12:42;2.42;;;1.60;;
32788;SDS011;19141;48.980;8.410;2023-08-01T19:15:08;5.35;;;1.70;;
32788;SDS011;19141;48.980;8.410;2023-08-01T19:17:33;3.42;;;1.65;;
32788;SDS011;19141;48.980;8.410;2023-08-01T19:19:59;6.35;;;2.70;;